Time;durP1;ratioP1;P1;durP2;ratioP2;P2;SDS_P1;SDS_P2;PMS_P1;PMS_P2;Temp;Humidity;BMP_temperature;BMP_pressure;BME280_temperature;BME280_humidity;BME280_pressure;Samples;Min_cycle;Max_cycle;Signal;HPM_P1;HPM_P2
2021/06/07 00:02:17;;;;;;;2.58;1.20;;;11.50;99.90;;;;;;5069901;28;20432;-82
2021/06/07 00:04:44;;;;;;;1.70;1.02;;;11.60;99.90;;;;;;5054765;28;20442;-80
2021/06/07 00:07:14;;;;;;;1.15;0.90;;;11.60;99.90;;;;;;5067623;28;20915;-80
2021/06/07 00:09:41;;;;;;;1.20;0.70;;;11.70;99.90;;;;;;5070549;28;20421;-80
2021/06/07 00:12:15;;;;;;;1.47;1.00;;;11.80;99.90;;;;;;5070086;28;20419;-80
2021/06/07 00:14:42;;;;;;;1.90;1.40;;;12.00;99.90;;;;;;5070189;28;21215;-80
2021/06/07 00:17:09;;;;;;;1.83;1.17;;;12.50;99.90;;;;;;5068717;28;20571;-81
2021/06/07 00:19:38;;;;;;;1.20;0.85;;;13.00;99.90;;;;;;5070335;28;20768;-81
2021/06/07 00:22:06;;;;;;;1.90;0.93;;;13.50;99.90;;;;;;5054157;28;20380;-80
2021/06/07 00:24:33;;;;;;;0.70;0.70;;;13.60;99.90;;;;;;5051666;28;20383;-80
2021/06/07 00:27:00;;;;;;;1.60;0.70;;;13.60;99.90;;;;;;5056210;28;20390;-80
2021/06/07 00:29:28;;;;;;;0.90;0.60;;;13.60;99.90;;;;;;5061659;28;20469;-81
2021/06/07 00:31:55;;;;;;;1.13;0.80;;;13.40;99.90;;;;;;5069953;28;20715;-80
2021/06/07 00:34:22;;;;;;;0.90;0.60;;;13.30;99.90;;;;;;5052117;28;20414;-81
2021/06/07 00:36:49;;;;;;;1.63;0.60;;;13.10;99.90;;;;;;5059247;28;20400;-81
2021/06/07 00:39:17;;;;;;;1.80;0.80;;;13.10;99.90;;;;;;5049996;28;20410;-82
2021/06/07 00:41:47;;;;;;;1.63;0.83;;;13.00;99.90;;;;;;5054967;28;20456;-82
2021/06/07 00:44:22;;;;;;;1.50;0.70;;;13.10;99.90;;;;;;5069541;28;20375;-80
2021/06/07 00:46:49;;;;;;;2.05;0.90;;;13.20;99.90;;;;;;5069778;28;20884;-80
2021/06/07 00:49:17;;;;;;;1.00;0.60;;;13.20;99.90;;;;;;5069558;28;20409;-82
2021/06/07 00:51:46;;;;;;;2.38;0.70;;;13.40;99.90;;;;;;5069652;28;20383;-81
2021/06/07 00:54:14;;;;;;;2.05;0.60;;;13.30;99.90;;;;;;5069281;28;20401;-80
2021/06/07 00:56:41;;;;;;;1.27;0.70;;;13.40;99.90;;;;;;5069382;28;20387;-80
2021/06/07 00:59:09;;;;;;;1.17;0.60;;;13.60;99.90;;;;;;5068787;28;20366;-81
2021/06/07 01:01:36;;;;;;;1.70;0.68;;;13.70;99.90;;;;;;5057996;28;20391;-81
2021/06/07 01:04:04;;;;;;;2.22;0.57;;;13.80;99.90;;;;;;5049951;28;20376;-82
2021/06/07 01:06:32;;;;;;;1.48;0.75;;;13.90;99.90;;;;;;5049375;28;20392;-80
2021/06/07 01:08:59;;;;;;;2.25;0.73;;;13.90;99.90;;;;;;5048362;28;20855;-82
2021/06/07 01:11:27;;;;;;;1.13;0.60;;;14.00;99.90;;;;;;5049272;28;20391;-80
2021/06/07 01:13:54;;;;;;;0.90;0.60;;;14.10;99.90;;;;;;5049268;28;20406;-80
2021/06/07 01:16:21;;;;;;;1.53;0.80;;;14.10;99.90;;;;;;5055406;28;20779;-79
2021/06/07 01:18:50;;;;;;;1.42;0.60;;;14.20;99.90;;;;;;5051384;28;20380;-79
2021/06/07 01:21:22;;;;;;;1.13;0.60;;;14.30;99.90;;;;;;5059079;28;20507;-80
2021/06/07 01:23:50;;;;;;;1.08;0.57;;;14.30;99.90;;;;;;5048956;28;20708;-80
2021/06/07 01:26:20;;;;;;;1.02;0.40;;;14.40;99.90;;;;;;5049494;28;20470;-81
2021/06/07 01:28:49;;;;;;;1.08;0.35;;;14.50;99.90;;;;;;5049272;28;20998;-80
2021/06/07 01:31:17;;;;;;;0.85;0.60;;;14.50;99.90;;;;;;5049065;28;20380;-80
2021/06/07 01:33:49;;;;;;;1.35;0.50;;;14.60;99.90;;;;;;5049205;28;20836;-80
2021/06/07 01:36:16;;;;;;;0.95;0.52;;;14.60;99.90;;;;;;5058391;28;20402;-82
2021/06/07 01:38:43;;;;;;;2.38;0.70;;;14.70;99.90;;;;;;5069061;28;20386;-81
2021/06/07 01:41:13;;;;;;;0.90;0.35;;;14.80;99.90;;;;;;5068870;28;20386;-79
2021/06/07 01:43:41;;;;;;;1.92;0.60;;;15.00;99.90;;;;;;5068806;28;20382;-80
2021/06/07 01:46:08;;;;;;;1.23;0.60;;;15.10;99.90;;;;;;5068934;28;20397;-81
2021/06/07 01:48:36;;;;;;;2.10;0.50;;;15.20;99.90;;;;;;5054585;28;20390;-80
2021/06/07 01:51:06;;;;;;;1.38;0.52;;;15.40;99.90;;;;;;5048801;28;20391;-80
2021/06/07 01:53:34;;;;;;;1.48;0.43;;;15.50;99.90;;;;;;5052219;28;20390;-80
2021/06/07 01:56:05;;;;;;;0.75;0.40;;;15.50;99.90;;;;;;5057431;28;20397;-79
2021/06/07 01:58:32;;;;;;;3.20;0.70;;;15.70;99.90;;;;;;5068629;28;20366;-79
2021/06/07 02:01:02;;;;;;;1.13;0.60;;;15.60;99.90;;;;;;5062411;28;20383;-79
2021/06/07 02:03:29;;;;;;;1.40;0.40;;;15.60;99.90;;;;;;5049474;28;20376;-81
2021/06/07 02:05:59;;;;;;;1.23;0.63;;;15.60;99.90;;;;;;5066451;28;20783;-80
2021/06/07 02:08:31;;;;;;;1.48;0.70;;;15.60;99.90;;;;;;5063670;28;20787;-82
2021/06/07 02:11:07;;;;;;;0.80;0.52;;;15.70;99.90;;;;;;5056717;28;20824;-80
2021/06/07 02:13:34;;;;;;;1.27;0.50;;;15.90;99.80;;;;;;5052652;28;20415;-80
2021/06/07 02:16:06;;;;;;;1.75;0.50;;;16.10;99.90;;;;;;5067559;28;20416;-81
2021/06/07 02:18:35;;;;;;;0.85;0.45;;;16.20;98.60;;;;;;5052744;28;20900;-82
2021/06/07 02:21:07;;;;;;;2.33;0.75;;;16.30;98.40;;;;;;5061704;28;20398;-82
2021/06/07 02:23:35;;;;;;;1.10;0.30;;;16.40;98.20;;;;;;5072337;28;20386;-81
2021/06/07 02:26:02;;;;;;;1.30;0.45;;;16.50;98.30;;;;;;5055992;28;20434;-81
2021/06/07 02:28:30;;;;;;;1.98;0.40;;;16.40;98.60;;;;;;5052425;28;20479;-82
2021/06/07 02:30:57;;;;;;;2.60;0.57;;;16.30;98.80;;;;;;5053461;28;20478;-82
2021/06/07 02:33:25;;;;;;;1.40;0.40;;;16.40;99.90;;;;;;5067563;28;20393;-81
2021/06/07 02:35:52;;;;;;;0.90;0.30;;;16.50;99.20;;;;;;5065866;28;20441;-81
2021/06/07 02:38:19;;;;;;;0.90;0.38;;;16.60;98.70;;;;;;5052285;28;20372;-84
2021/06/07 02:40:49;;;;;;;0.38;0.30;;;16.70;99.60;;;;;;5060617;28;20381;-83
2021/06/07 02:43:16;;;;;;;0.73;0.30;;;16.70;97.90;;;;;;5071894;28;20374;-82
2021/06/07 02:45:44;;;;;;;0.60;0.38;;;16.70;96.70;;;;;;5072011;28;20393;-82
2021/06/07 02:48:11;;;;;;;1.13;0.20;;;16.80;97.00;;;;;;5070962;28;20465;-81
2021/06/07 02:50:41;;;;;;;0.30;0.20;;;16.80;97.90;;;;;;5052268;28;20464;-81
2021/06/07 02:53:09;;;;;;;1.08;0.30;;;16.90;97.20;;;;;;5053033;28;20403;-83
2021/06/07 02:55:47;;;;;;;0.52;0.22;;;16.80;96.60;;;;;;5064640;28;20493;-81
2021/06/07 02:58:17;;;;;;;0.60;0.28;;;16.80;97.60;;;;;;5071314;28;20382;-82
2021/06/07 03:00:56;;;;;;;1.80;0.45;;;16.80;97.80;;;;;;5062909;28;20379;-82
2021/06/07 03:03:23;;;;;;;0.68;0.30;;;16.80;97.70;;;;;;5051789;28;20368;-83
2021/06/07 03:05:51;;;;;;;0.50;0.20;;;16.80;97.20;;;;;;5053674;28;20430;-82
2021/06/07 03:08:22;;;;;;;1.30;0.40;;;16.90;96.80;;;;;;5062290;28;20383;-81
2021/06/07 03:10:52;;;;;;;0.73;0.35;;;16.90;96.90;;;;;;5051647;28;20804;-81
2021/06/07 03:13:20;;;;;;;1.83;0.30;;;16.90;97.20;;;;;;5051604;28;20389;-82
2021/06/07 03:15:49;;;;;;;0.30;0.30;;;16.90;96.80;;;;;;5051150;28;20810;-83
2021/06/07 03:18:16;;;;;;;0.77;0.20;;;16.90;96.50;;;;;;5051472;28;20712;-82
2021/06/07 03:20:43;;;;;;;0.47;0.20;;;16.80;96.00;;;;;;5050434;28;20843;-82
2021/06/07 03:23:13;;;;;;;1.95;0.40;;;16.70;95.70;;;;;;5051751;28;20380;-81
2021/06/07 03:25:42;;;;;;;0.85;0.40;;;16.80;96.10;;;;;;5051288;28;21262;-82
2021/06/07 03:28:09;;;;;;;1.13;0.30;;;16.80;95.00;;;;;;5051245;28;20426;-82
2021/06/07 03:30:38;;;;;;;1.23;0.40;;;16.90;95.20;;;;;;5051459;28;20388;-82
2021/06/07 03:33:07;;;;;;;0.50;0.30;;;16.90;93.90;;;;;;5051091;28;20399;-82
2021/06/07 03:35:35;;;;;;;0.90;0.30;;;16.90;95.10;;;;;;5051596;28;20439;-84
2021/06/07 03:38:03;;;;;;;1.15;0.30;;;16.80;94.50;;;;;;5051087;28;20459;-82
2021/06/07 03:40:33;;;;;;;1.90;0.28;;;16.90;95.50;;;;;;5051012;28;20457;-83
2021/06/07 03:43:01;;;;;;;1.70;0.30;;;16.80;93.70;;;;;;5057332;28;20380;-83
2021/06/07 03:45:28;;;;;;;1.20;0.30;;;16.80;95.00;;;;;;5074359;28;20435;-81
2021/06/07 03:47:55;;;;;;;2.50;0.50;;;16.90;95.20;;;;;;5072559;28;20378;-83
2021/06/07 03:50:25;;;;;;;1.10;0.40;;;16.90;94.50;;;;;;5061100;28;20436;-82
2021/06/07 03:52:53;;;;;;;0.40;0.30;;;17.00;95.20;;;;;;5050982;28;20388;-81
2021/06/07 03:55:21;;;;;;;0.68;0.20;;;17.00;95.50;;;;;;5050562;28;20425;-83
2021/06/07 03:57:49;;;;;;;1.08;0.35;;;17.10;95.90;;;;;;5051974;28;20474;-82
2021/06/07 04:00:18;;;;;;;1.02;0.35;;;17.10;95.30;;;;;;5053910;28;20454;-84
2021/06/07 04:02:45;;;;;;;1.35;0.40;;;17.10;95.70;;;;;;5070577;28;20427;-84
2021/06/07 04:05:14;;;;;;;1.60;0.25;;;17.10;95.60;;;;;;5071145;28;20414;-82
2021/06/07 04:07:41;;;;;;;2.20;0.40;;;17.20;95.40;;;;;;5070633;28;20362;-82
2021/06/07 04:10:13;;;;;;;1.20;0.32;;;17.20;96.30;;;;;;5059752;28;20750;-84
2021/06/07 04:12:41;;;;;;;0.50;0.30;;;17.20;96.20;;;;;;5069056;28;20699;-84
2021/06/07 04:15:10;;;;;;;1.63;0.40;;;17.00;95.70;;;;;;5070582;28;20490;-82
2021/06/07 04:17:37;;;;;;;0.50;0.30;;;17.00;96.10;;;;;;5070444;28;20362;-82
2021/06/07 04:20:09;;;;;;;2.30;0.45;;;16.90;96.60;;;;;;5066140;28;20392;-81
2021/06/07 04:22:37;;;;;;;1.85;0.30;;;16.90;97.10;;;;;;5050266;28;20926;-82
2021/06/07 04:25:06;;;;;;;2.33;0.30;;;16.80;97.10;;;;;;5056903;28;20385;-81
2021/06/07 04:27:33;;;;;;;1.70;0.30;;;16.80;97.50;;;;;;5069904;28;20895;-83
2021/06/07 04:30:04;;;;;;;1.55;0.30;;;16.70;97.90;;;;;;5059751;28;20390;-83
2021/06/07 04:32:32;;;;;;;0.47;0.40;;;16.70;97.10;;;;;;5054737;28;20392;-83
2021/06/07 04:35:00;;;;;;;0.85;0.30;;;16.70;97.40;;;;;;5055624;28;20763;-83
2021/06/07 04:37:29;;;;;;;0.55;0.30;;;16.70;97.90;;;;;;5050227;28;20398;-83
2021/06/07 04:39:58;;;;;;;1.15;0.45;;;16.50;97.70;;;;;;5055566;28;20739;-82
2021/06/07 04:42:25;;;;;;;0.70;0.30;;;16.60;98.30;;;;;;5055338;28;20392;-82
2021/06/07 04:44:52;;;;;;;1.88;0.45;;;16.50;97.90;;;;;;5065147;28;20463;-82
2021/06/07 04:47:20;;;;;;;1.33;0.30;;;16.50;98.30;;;;;;5069753;28;20428;-82
2021/06/07 04:49:47;;;;;;;1.00;0.30;;;16.50;97.40;;;;;;5068114;28;20395;-85
2021/06/07 04:52:14;;;;;;;0.30;0.20;;;16.50;97.70;;;;;;5051640;28;20372;-83
2021/06/07 04:54:41;;;;;;;1.67;0.20;;;16.50;97.60;;;;;;5061829;28;20502;-82
2021/06/07 04:57:08;;;;;;;0.65;0.22;;;16.50;97.20;;;;;;5059495;28;20382;-82
2021/06/07 04:59:35;;;;;;;0.85;0.30;;;16.50;98.30;;;;;;5069964;28;20378;-82
2021/06/07 05:02:02;;;;;;;1.50;0.40;;;16.40;97.40;;;;;;5051006;28;20383;-82
2021/06/07 05:04:29;;;;;;;1.40;0.30;;;16.30;97.70;;;;;;5053936;28;20386;-83
2021/06/07 05:06:56;;;;;;;1.08;0.50;;;16.30;98.20;;;;;;5069810;28;20847;-82
2021/06/07 05:09:23;;;;;;;2.58;0.40;;;16.30;98.20;;;;;;5069695;28;20378;-82
2021/06/07 05:11:50;;;;;;;0.90;0.20;;;16.20;98.90;;;;;;5069730;28;20371;-83
2021/06/07 05:14:17;;;;;;;0.85;0.20;;;16.20;98.60;;;;;;5069633;28;20374;-83
2021/06/07 05:16:44;;;;;;;0.93;0.22;;;16.20;97.50;;;;;;5071775;28;20412;-82
2021/06/07 05:19:11;;;;;;;0.90;0.30;;;16.10;99.10;;;;;;5067946;28;20755;-83
2021/06/07 05:21:38;;;;;;;0.70;0.20;;;16.00;99.70;;;;;;5052479;28;20478;-81
2021/06/07 05:24:05;;;;;;;0.32;0.20;;;15.90;99.90;;;;;;5049140;28;20434;-83
2021/06/07 05:26:32;;;;;;;1.80;0.30;;;15.90;99.90;;;;;;5049285;28;20894;-83
2021/06/07 05:28:59;;;;;;;1.50;0.50;;;15.90;99.70;;;;;;5053325;28;20819;-84
2021/06/07 05:31:26;;;;;;;1.30;0.40;;;15.80;99.90;;;;;;5059402;28;20378;-83
2021/06/07 05:33:55;;;;;;;1.35;0.30;;;15.80;99.90;;;;;;5066397;28;20807;-81
2021/06/07 05:36:22;;;;;;;2.37;0.40;;;15.80;99.70;;;;;;5055846;28;20398;-81
2021/06/07 05:38:49;;;;;;;0.70;0.20;;;15.70;99.90;;;;;;5050054;28;20388;-81
2021/06/07 05:41:16;;;;;;;1.17;0.30;;;15.70;99.90;;;;;;5048861;28;20450;-82
2021/06/07 05:43:43;;;;;;;1.75;0.40;;;15.60;99.90;;;;;;5056678;28;20393;-82
2021/06/07 05:46:10;;;;;;;1.23;0.40;;;15.60;99.90;;;;;;5067596;28;20410;-82
2021/06/07 05:48:37;;;;;;;1.70;0.43;;;15.50;99.90;;;;;;5068755;28;20393;-81
2021/06/07 05:51:04;;;;;;;1.10;0.40;;;15.50;99.90;;;;;;5068911;28;20386;-83
2021/06/07 05:53:31;;;;;;;1.08;0.30;;;15.40;99.90;;;;;;5067389;28;20809;-82
2021/06/07 05:55:58;;;;;;;1.25;0.60;;;15.40;99.90;;;;;;5068610;28;20409;-83
2021/06/07 05:58:25;;;;;;;1.05;0.50;;;15.30;99.90;;;;;;5068566;28;20393;-82
2021/06/07 06:00:53;;;;;;;1.00;0.50;;;15.30;99.90;;;;;;5068039;28;20408;-82
2021/06/07 06:03:20;;;;;;;1.15;0.70;;;15.30;99.90;;;;;;5048486;28;20390;-82
2021/06/07 06:05:49;;;;;;;1.83;1.70;;;15.30;99.90;;;;;;5048734;28;20383;-83
2021/06/07 06:08:18;;;;;;;1.63;0.70;;;15.30;99.90;;;;;;5053750;28;20747;-82
2021/06/07 06:10:45;;;;;;;2.05;0.55;;;15.20;99.90;;;;;;5048789;28;20391;-82
2021/06/07 06:13:12;;;;;;;1.48;1.30;;;15.20;99.90;;;;;;5048804;28;20393;-82
2021/06/07 06:15:39;;;;;;;1.48;1.08;;;15.20;99.90;;;;;;5047295;28;20503;-81
2021/06/07 06:18:06;;;;;;;2.17;1.10;;;15.10;99.90;;;;;;5047327;28;20784;-82
2021/06/07 06:20:33;;;;;;;2.78;1.08;;;15.00;99.90;;;;;;5067574;28;20746;-81
2021/06/07 06:23:00;;;;;;;0.70;0.63;;;14.90;99.90;;;;;;5068510;28;20386;-81
2021/06/07 06:25:28;;;;;;;1.30;0.90;;;14.90;99.90;;;;;;5068503;28;20390;-81
2021/06/07 06:27:57;;;;;;;3.20;1.00;;;14.80;99.90;;;;;;5061641;28;20380;-81
2021/06/07 06:30:28;;;;;;;3.65;1.50;;;14.80;99.90;;;;;;5063530;28;20397;-82
2021/06/07 06:32:59;;;;;;;1.85;1.70;;;14.70;99.90;;;;;;5048350;28;20376;-82
2021/06/07 06:35:27;;;;;;;3.08;1.65;;;14.70;99.90;;;;;;5048302;28;20410;-82
2021/06/07 06:37:54;;;;;;;1.77;1.55;;;14.50;99.90;;;;;;5048789;28;20383;-82
2021/06/07 06:40:32;;;;;;;1.80;1.05;;;14.40;99.90;;;;;;5048337;28;20429;-82
2021/06/07 06:43:01;;;;;;;2.13;1.30;;;14.40;99.90;;;;;;5047572;28;20383;-81
2021/06/07 06:45:29;;;;;;;2.35;1.27;;;14.30;99.90;;;;;;5049292;28;20376;-82
2021/06/07 06:47:57;;;;;;;1.38;0.80;;;14.20;99.90;;;;;;5050048;28;20516;-82
2021/06/07 06:50:26;;;;;;;1.38;0.65;;;14.20;99.90;;;;;;5051742;28;20452;-82
2021/06/07 06:52:54;;;;;;;1.83;0.60;;;14.00;99.90;;;;;;5051155;28;20730;-82
2021/06/07 06:55:21;;;;;;;2.30;0.90;;;14.00;99.90;;;;;;5049560;28;20396;-82
2021/06/07 06:57:48;;;;;;;1.40;0.70;;;13.90;99.90;;;;;;5051982;28;20958;-82
2021/06/07 07:00:17;;;;;;;2.40;0.80;;;13.80;99.90;;;;;;5051950;28;20410;-82
2021/06/07 07:02:44;;;;;;;1.57;0.60;;;13.70;99.90;;;;;;5051936;28;20790;-82
2021/06/07 07:05:11;;;;;;;1.00;0.70;;;13.60;99.90;;;;;;5052120;28;20366;-82
2021/06/07 07:07:38;;;;;;;1.88;0.80;;;13.40;99.90;;;;;;5062620;28;20385;-82
2021/06/07 07:10:07;;;;;;;1.38;0.65;;;13.30;99.90;;;;;;5066458;28;20382;-82
2021/06/07 07:12:35;;;;;;;2.08;0.77;;;13.20;99.90;;;;;;5051720;28;20376;-82
2021/06/07 07:15:02;;;;;;;1.48;0.70;;;13.10;99.90;;;;;;5051500;28;20442;-83
2021/06/07 07:17:29;;;;;;;2.40;1.83;;;13.00;99.90;;;;;;5051449;28;20375;-82
2021/06/07 07:19:57;;;;;;;3.03;2.08;;;13.00;99.90;;;;;;5050284;28;20391;-82
2021/06/07 07:22:24;;;;;;;1.80;1.47;;;12.90;99.90;;;;;;5053682;28;20482;-82
2021/06/07 07:24:51;;;;;;;2.20;1.20;;;12.90;99.90;;;;;;5062620;28;20422;-83
2021/06/07 07:27:19;;;;;;;2.40;1.27;;;12.80;99.90;;;;;;5068351;28;20926;-83
2021/06/07 07:29:47;;;;;;;2.90;1.35;;;12.80;99.90;;;;;;5066321;28;21579;-82
2021/06/07 07:32:14;;;;;;;2.20;1.38;;;12.90;99.90;;;;;;5069116;28;20429;-82
2021/06/07 07:34:41;;;;;;;1.98;1.05;;;13.00;99.90;;;;;;5070543;28;20402;-84
2021/06/07 07:37:10;;;;;;;4.05;1.30;;;13.00;99.90;;;;;;5063144;28;20402;-83
2021/06/07 07:39:38;;;;;;;2.70;1.25;;;13.00;99.90;;;;;;5068735;28;20401;-82
2021/06/07 07:42:06;;;;;;;1.88;1.42;;;13.00;99.90;;;;;;5057762;28;20392;-81
2021/06/07 07:44:34;;;;;;;2.70;1.47;;;13.00;99.90;;;;;;5073818;28;20407;-81
2021/06/07 07:47:02;;;;;;;2.30;1.30;;;13.00;99.90;;;;;;5069868;28;20444;-83
2021/06/07 07:49:29;;;;;;;4.88;1.30;;;12.90;99.90;;;;;;5070143;28;20796;-81
2021/06/07 07:51:56;;;;;;;2.87;1.50;;;12.90;99.90;;;;;;5069435;28;20421;-82
2021/06/07 07:54:23;;;;;;;2.55;1.70;;;12.90;99.90;;;;;;5057875;28;20890;-81
2021/06/07 07:56:50;;;;;;;2.10;1.20;;;12.90;99.90;;;;;;5059107;28;20411;-80
2021/06/07 07:59:17;;;;;;;4.20;1.10;;;12.90;99.90;;;;;;5061948;28;20414;-82
2021/06/07 08:01:44;;;;;;;2.00;0.93;;;12.80;99.90;;;;;;5061665;28;20433;-82
2021/06/07 08:04:11;;;;;;;1.98;1.05;;;12.80;99.90;;;;;;5056774;28;20426;-82
2021/06/07 08:06:40;;;;;;;1.73;1.10;;;12.80;99.90;;;;;;5060317;28;20398;-84
2021/06/07 08:09:07;;;;;;;2.37;1.50;;;12.80;99.90;;;;;;5067905;28;20495;-82
2021/06/07 08:11:34;;;;;;;4.10;1.90;;;12.70;99.90;;;;;;5063165;28;20406;-82
2021/06/07 08:14:01;;;;;;;2.80;2.00;;;12.70;99.90;;;;;;5057686;28;20401;-83
2021/06/07 08:16:28;;;;;;;3.80;1.95;;;12.70;99.90;;;;;;5055667;28;20413;-81
2021/06/07 08:18:55;;;;;;;3.03;2.50;;;12.60;99.90;;;;;;5059909;28;20379;-83
2021/06/07 08:21:22;;;;;;;3.50;1.98;;;12.60;99.90;;;;;;5065227;28;20480;-82
2021/06/07 08:23:49;;;;;;;2.83;1.92;;;12.60;99.90;;;;;;5065937;28;20397;-82
2021/06/07 08:26:16;;;;;;;4.07;2.08;;;12.60;99.90;;;;;;5067360;28;20400;-82
2021/06/07 08:28:43;;;;;;;3.50;2.20;;;12.50;99.90;;;;;;5064487;28;20398;-82
2021/06/07 08:31:10;;;;;;;5.45;2.22;;;12.40;99.90;;;;;;5067528;28;20788;-83
2021/06/07 08:33:37;;;;;;;4.78;2.17;;;12.40;99.90;;;;;;5067854;28;20413;-83
2021/06/07 08:36:05;;;;;;;3.72;2.25;;;12.30;99.90;;;;;;5058359;28;20547;-82
2021/06/07 08:38:33;;;;;;;3.58;2.28;;;12.30;99.90;;;;;;5067486;28;20413;-82
2021/06/07 08:41:00;;;;;;;4.25;2.42;;;12.20;99.90;;;;;;5069032;28;20423;-81
2021/06/07 08:43:27;;;;;;;2.97;1.95;;;12.10;99.90;;;;;;5068377;28;21006;-82
2021/06/07 08:45:54;;;;;;;2.85;2.03;;;12.10;99.90;;;;;;5068732;28;20401;-82
2021/06/07 08:48:21;;;;;;;2.80;1.80;;;12.10;99.90;;;;;;5065492;28;20546;-81
2021/06/07 08:50:48;;;;;;;4.32;1.80;;;12.00;99.90;;;;;;5069064;28;20488;-82
2021/06/07 08:53:15;;;;;;;2.63;2.03;;;12.00;99.90;;;;;;5063591;28;20397;-81
2021/06/07 08:55:43;;;;;;;4.27;2.50;;;12.10;99.90;;;;;;5050756;28;20488;-81
2021/06/07 08:58:10;;;;;;;5.32;2.13;;;12.10;99.90;;;;;;5055854;28;20481;-82
2021/06/07 09:00:40;;;;;;;2.60;2.25;;;12.00;99.90;;;;;;5063321;28;20920;-81
2021/06/07 09:03:14;;;;;;;3.53;2.47;;;12.00;99.90;;;;;;5061078;28;20397;-82
2021/06/07 09:05:46;;;;;;;3.22;2.40;;;12.00;99.90;;;;;;5062050;28;20390;-82
2021/06/07 09:08:21;;;;;;;4.40;3.75;;;12.00;99.90;;;;;;5055090;28;20830;-84
2021/06/07 09:10:50;;;;;;;4.53;3.07;;;12.00;99.90;;;;;;5060496;28;20432;-82
2021/06/07 09:13:21;;;;;;;5.72;3.40;;;11.90;99.90;;;;;;5066725;28;20389;-82
2021/06/07 09:15:56;;;;;;;4.60;2.53;;;11.90;99.90;;;;;;5056989;28;20925;-82
2021/06/07 09:18:40;;;;;;;3.38;2.50;;;11.90;99.90;;;;;;5048274;28;20372;-82
2021/06/07 09:21:14;;;;;;;4.60;3.00;;;11.90;99.90;;;;;;5058926;28;20390;-82
2021/06/07 09:23:53;;;;;;;3.13;2.13;;;11.90;99.90;;;;;;5058339;28;20773;-83
2021/06/07 09:26:52;;;;;;;4.68;2.90;;;11.90;99.90;;;;;;5062432;28;20398;-81
2021/06/07 09:29:25;;;;;;;3.33;2.95;;;11.80;99.90;;;;;;5058452;28;20391;-81
2021/06/07 09:31:54;;;;;;;3.45;2.65;;;11.70;99.90;;;;;;5060542;28;20917;-81
2021/06/07 09:34:28;;;;;;;3.95;3.03;;;11.80;99.90;;;;;;5057546;28;20449;-81
2021/06/07 09:37:03;;;;;;;4.88;3.88;;;11.80;99.90;;;;;;5058729;28;20402;-81
2021/06/07 09:39:30;;;;;;;6.05;4.18;;;11.70;99.90;;;;;;5062916;28;20474;-81
2021/06/07 09:42:08;;;;;;;4.05;3.38;;;11.70;99.90;;;;;;5058600;28;20437;-82
2021/06/07 09:44:37;;;;;;;4.15;3.67;;;11.70;99.90;;;;;;5052168;28;20760;-80
2021/06/07 09:47:28;;;;;;;5.05;3.90;;;11.70;99.90;;;;;;5067921;28;20918;-82
2021/06/07 09:49:56;;;;;;;7.35;3.65;;;11.60;99.90;;;;;;5066798;28;20416;-81
2021/06/07 09:52:44;;;;;;;5.43;4.18;;;11.60;99.90;;;;;;5064064;28;20527;-82
2021/06/07 09:55:29;;;;;;;7.47;4.53;;;11.50;99.90;;;;;;5064050;28;20394;-82
2021/06/07 09:57:56;;;;;;;6.35;4.97;;;11.40;99.90;;;;;;5049108;28;20390;-82
2021/06/07 10:00:44;;;;;;;4.65;4.10;;;11.30;99.90;;;;;;5049225;28;20359;-80
2021/06/07 10:03:44;;;;;;;5.50;3.95;;;11.30;99.90;;;;;;5053836;28;20431;-81
2021/06/07 10:06:36;;;;;;;4.55;4.15;;;11.30;99.90;;;;;;5063542;28;20413;-81
2021/06/07 10:09:11;;;;;;;4.65;4.20;;;11.20;99.90;;;;;;5061029;28;20398;-81
2021/06/07 10:11:45;;;;;;;4.40;3.95;;;11.10;99.90;;;;;;5047534;28;20364;-84
2021/06/07 10:14:20;;;;;;;7.60;5.22;;;11.10;99.90;;;;;;5066372;28;20386;-81
2021/06/07 10:17:01;;;;;;;5.75;4.50;;;11.10;99.90;;;;;;5067650;28;20428;-80
2021/06/07 10:22:13;;;;;;;3.30;2.58;;;11.10;99.90;;;;;;5067803;28;20390;-82
2021/06/07 10:24:41;;;;;;;4.13;2.83;;;11.20;99.90;;;;;;5049113;28;20390;-80
2021/06/07 10:27:08;;;;;;;4.85;2.35;;;11.20;99.90;;;;;;5059476;28;21045;-81
2021/06/07 10:29:38;;;;;;;4.22;2.60;;;11.30;99.90;;;;;;5053076;28;20392;-80
2021/06/07 10:32:28;;;;;;;2.85;2.15;;;11.30;99.90;;;;;;5052382;28;20430;-80
2021/06/07 10:34:57;;;;;;;2.72;1.83;;;11.30;99.90;;;;;;5051853;28;20403;-80
2021/06/07 10:37:27;;;;;;;1.77;1.60;;;11.30;99.90;;;;;;5053534;28;20419;-80
2021/06/07 10:40:20;;;;;;;3.75;2.47;;;11.30;99.90;;;;;;5071728;28;20398;-80
2021/06/07 10:43:03;;;;;;;4.32;1.80;;;11.20;99.90;;;;;;5067719;28;20399;-80
2021/06/07 10:45:34;;;;;;;4.60;3.10;;;11.20;99.90;;;;;;5062177;28;20458;-80
2021/06/07 10:48:02;;;;;;;4.93;3.85;;;11.10;99.90;;;;;;5065065;28;20468;-80
2021/06/07 10:50:31;;;;;;;5.60;4.57;;;11.00;99.90;;;;;;5071811;28;20374;-80
2021/06/07 10:53:06;;;;;;;6.05;4.55;;;10.90;99.90;;;;;;5060414;28;20380;-81
2021/06/07 10:55:37;;;;;;;4.75;3.58;;;10.80;99.90;;;;;;5060153;28;20430;-80
2021/06/07 10:58:13;;;;;;;5.47;3.33;;;10.80;99.90;;;;;;5064027;28;20406;-82
2021/06/07 11:00:42;;;;;;;6.13;4.28;;;10.80;99.90;;;;;;5071145;28;20884;-81
2021/06/07 11:03:21;;;;;;;4.85;3.20;;;10.80;99.90;;;;;;5069281;28;20386;-80
2021/06/07 11:05:50;;;;;;;3.78;3.05;;;10.80;99.90;;;;;;5061282;28;20484;-81
2021/06/07 11:08:29;;;;;;;3.10;2.65;;;10.80;99.90;;;;;;5071347;28;20520;-81
2021/06/07 11:11:02;;;;;;;5.32;2.60;;;10.80;99.90;;;;;;5056115;28;20383;-82
2021/06/07 11:13:44;;;;;;;4.18;2.78;;;10.80;99.90;;;;;;5064012;28;20438;-81
2021/06/07 11:16:25;;;;;;;1.75;1.55;;;10.80;99.90;;;;;;5069325;28;20461;-82
2021/06/07 11:19:02;;;;;;;1.77;1.50;;;11.00;99.90;;;;;;5065740;28;20480;-82
2021/06/07 11:22:02;;;;;;;1.85;1.40;;;11.10;99.90;;;;;;5068541;28;20907;-81
2021/06/07 11:24:37;;;;;;;3.35;1.75;;;11.10;99.90;;;;;;5076729;28;20836;-83
2021/06/07 11:27:07;;;;;;;1.20;1.10;;;11.20;99.90;;;;;;5059635;28;20504;-81
2021/06/07 11:29:35;;;;;;;2.28;1.25;;;11.20;99.90;;;;;;5068213;28;20416;-82
2021/06/07 11:32:11;;;;;;;2.60;1.38;;;11.30;99.90;;;;;;5061150;28;20400;-82
2021/06/07 11:34:49;;;;;;;3.50;1.52;;;11.20;99.90;;;;;;5064617;28;20500;-82
2021/06/07 11:37:32;;;;;;;2.80;1.52;;;11.10;99.90;;;;;;5058294;28;20396;-82
2021/06/07 11:39:59;;;;;;;2.88;1.95;;;11.00;99.90;;;;;;5056290;28;20758;-81
2021/06/07 11:42:30;;;;;;;1.70;1.17;;;10.90;99.90;;;;;;5068203;28;20402;-80
2021/06/07 11:45:08;;;;;;;2.65;1.30;;;10.90;99.90;;;;;;5061359;28;20393;-80
2021/06/07 11:47:41;;;;;;;4.22;1.80;;;10.80;99.90;;;;;;5067378;28;20831;-80
2021/06/07 11:50:26;;;;;;;1.27;1.08;;;10.80;99.90;;;;;;5066499;28;20414;-79
2021/06/07 11:52:54;;;;;;;1.55;1.10;;;10.80;99.90;;;;;;5058732;28;20420;-80
2021/06/07 11:55:32;;;;;;;1.10;0.88;;;10.90;99.90;;;;;;5060790;28;20399;-79
2021/06/07 11:58:13;;;;;;;2.92;1.10;;;11.00;99.90;;;;;;5059424;28;20753;-80
2021/06/07 12:00:43;;;;;;;2.28;1.23;;;10.90;99.90;;;;;;5062823;28;20394;-81
2021/06/07 12:03:16;;;;;;;3.37;1.13;;;10.90;99.90;;;;;;5057635;28;20469;-80
2021/06/07 12:05:43;;;;;;;3.35;1.20;;;10.90;99.90;;;;;;5062149;28;20503;-80
2021/06/07 12:08:12;;;;;;;1.55;1.20;;;10.80;99.90;;;;;;5054058;28;20397;-81
2021/06/07 12:10:42;;;;;;;3.88;1.30;;;10.70;99.90;;;;;;5059749;28;20461;-80
2021/06/07 12:13:22;;;;;;;2.42;1.30;;;10.70;99.90;;;;;;5064251;28;20417;-80
2021/06/07 12:15:54;;;;;;;3.13;1.23;;;10.80;99.90;;;;;;5059096;28;20437;-81
2021/06/07 12:18:48;;;;;;;1.73;1.20;;;10.90;99.90;;;;;;5067814;28;20501;-81
2021/06/07 12:21:19;;;;;;;1.88;1.30;;;11.00;99.90;;;;;;5059429;28;20923;-82
2021/06/07 12:23:58;;;;;;;2.05;1.20;;;11.00;99.90;;;;;;5070151;28;20427;-81
2021/06/07 12:29:36;;;;;;;1.55;1.20;;;11.00;99.90;;;;;;5059372;28;20532;-81
2021/06/07 12:32:19;;;;;;;3.85;1.25;;;11.10;99.90;;;;;;5060969;28;20399;-81
2021/06/07 12:35:14;;;;;;;1.35;0.88;;;11.10;99.90;;;;;;5051716;28;20407;-81
2021/06/07 12:37:49;;;;;;;1.95;1.25;;;11.10;99.90;;;;;;5058021;28;20899;-81
2021/06/07 12:40:25;;;;;;;0.93;0.93;;;11.10;99.90;;;;;;5063046;28;20404;-81
2021/06/07 12:42:57;;;;;;;3.10;1.20;;;11.00;99.90;;;;;;5062958;28;20431;-81
2021/06/07 12:45:32;;;;;;;1.80;1.50;;;10.90;99.90;;;;;;5062867;28;20404;-81
2021/06/07 12:48:20;;;;;;;2.20;1.50;;;10.70;99.90;;;;;;5062083;28;20406;-81
2021/06/07 12:50:55;;;;;;;1.67;1.00;;;10.60;99.90;;;;;;5057344;28;20461;-82
2021/06/07 12:53:25;;;;;;;4.30;0.90;;;10.50;99.90;;;;;;5064636;28;20391;-80
2021/06/07 12:55:55;;;;;;;2.30;0.80;;;10.60;99.90;;;;;;5068550;28;20460;-81
2021/06/07 12:58:27;;;;;;;2.40;0.80;;;10.70;99.90;;;;;;5069195;28;20394;-81
2021/06/07 13:00:57;;;;;;;1.80;0.80;;;10.90;99.90;;;;;;5064349;28;21114;-81
2021/06/07 13:03:31;;;;;;;1.60;0.90;;;11.00;99.90;;;;;;5067632;28;20473;-81
2021/06/07 13:06:06;;;;;;;3.80;1.85;;;10.90;99.90;;;;;;5069003;28;20449;-81
2021/06/07 13:08:35;;;;;;;2.53;1.80;;;10.70;99.90;;;;;;5067787;28;20448;-81
2021/06/07 13:11:06;;;;;;;5.00;1.80;;;10.70;99.90;;;;;;5068823;28;20461;-81